Terminal Aerodrome Forecast
Issued by NWS

Home | Current Version | Previous Version | Graphics & Text | Print | Product List | Glossary On
Versions: 1 2 3 4 5 6 7 8 9 10 11 12 13 14 15
800
FTUS41 KCLE 230036 AAA
TAFFDY
TAF AMD
KFDY 230036Z 2316/2412 23012G20KT P6SM OVC035
      TEMPO 2316/2319 24012KT 3SM SHRA OVC015
     FM231900 30010KT P6SM VCSH BKN050
     FM232200 29008KT P6SM OVC035
     FM240400 30006KT P6SM SCT070=

USA.gov is the U.S. government's official web portal to all federal, state and local government web resources and services.